Portada
Imágenes satélite Pronóstico 15 díasClimaPredicción Marítima Ciclones Rayo AeropuertosFAQ Noticias Acerca
El tiempo : Europa África América del Norte América del Sur Asia Australia-Oceanía Otros
Idiomas Contacto

Viru-Viru, Bolivia

latitud: 17-38S, longitud: 063-08W, altitud: 373 m


METAR: SLVR 241600Z 32006KT 9999 FEW017 SCT080 BKN200 30/17 Q1014
TAF: SLVR 241030Z 2412/2512 18010KT 9999 BKN020 BKN070 TX33/2419Z TN22/2510Z TEMPO 2413/2416 8000 RA BECMG 2419/2423 6000 SHRA FEW030CB BECMG 2423/2501 SCT023 BKN080 SLCB 241030Z 2412/2512 00000KT 5000 FU FEW027 TX29/2419Z TN11/2510Z BECMG 2413/2415 9999 NSW BECMG 2417/2419 26010KT FEW030 TEMPO 2419/2421 FEW030 FEW033CB SCT070 BECMG 2422/2424 14010KT

Hora: 12:50 (16:50 UTC)

Observación

El informe se hizo hace 50 minutos, a las 16:00 UTC
Viento 6 kt del noroeste
Temperatura 30°C
Humedad 46%
Presión 1014 hPa
Visibilidad 10 km o más
Escasas nubes a una altura de 1700 ft
Nubes dispersas a una altura de 8000 ft
Cielo nuboso a una altura de 20000 ft

Cambiar las unidades

Pronóstico

El informe se hizo hace 6 horas y 20 minutos, a las 10:30 UTC
Pronóstico válido del 24 a las 12 UTC al 25 a las 12 UTC
Viento 10 kt del sur
Visibilidad 10 km o más
Cielo nuboso a una altura de 2000 ft
Cielo nuboso a una altura de 7000 ft
Temporalmente
del 24 a las 13 UTC al 24 a las 16 UTC
Visibilidad: 8000 m
lluvia
Evolucionando progresivamente
del 24 a las 19 UTC al 24 a las 23 UTC
Visibilidad: 6000 m
Escasas nubes a una altura de 3000 ft, Cumulonimbus.
chaparrones de lluvia
Evolucionando progresivamente
del 24 a las 23 UTC al 25 a las 01 UTC
Viento kt del norte
Visibilidad: 5000 m
Nubes dispersas a una altura de 2300 ft
Cielo nuboso a una altura de 8000 ft
Escasas nubes a una altura de 2700 ft
humo
Evolucionando progresivamente
del 24 a las 13 UTC al 24 a las 15 UTC
Visibilidad 10 km o más
Evolucionando progresivamente
del 24 a las 17 UTC al 24 a las 19 UTC
Viento 10 kt del oeste
Escasas nubes a una altura de 3000 ft
Temporalmente
del 24 a las 19 UTC al 24 a las 21 UTC
Escasas nubes a una altura de 3000 ft
Escasas nubes a una altura de 3300 ft, Cumulonimbus.
Nubes dispersas a una altura de 7000 ft
Evolucionando progresivamente
del 24 a las 22 UTC al 24 a las 24 UTC
Viento 10 kt del sureste
La información que se ofrece en estas páginas está sujeta a una cláusula de exención de responsabilidad
El tiempo : Europa África América del Norte América del Sur Asia Australia-Oceanía Otros
Imágenes satélite Pronóstico 15 díasClimaPredicción Marítima Ciclones Rayo AeropuertosFAQ Idiomas Contacto Noticias Acerca